sensor_id;sensor_type;location;lat;lon;timestamp;P1;durP1;ratioP1;P2;durP2;ratioP2
16514;SDS011;8370;52.556;7.970;2022-09-09T00:04:25;5.80;;;5.00;;
16514;SDS011;8370;52.556;7.970;2022-09-09T00:09:21;8.17;;;5.30;;
16514;SDS011;8370;52.556;7.970;2022-09-09T00:12:02;5.47;;;4.87;;
16514;SDS011;8370;52.556;7.970;2022-09-09T00:23:06;8.90;;;4.70;;
16514;SDS011;8370;52.556;7.970;2022-09-09T00:26:03;7.10;;;4.20;;
16514;SDS011;8370;52.556;7.970;2022-09-09T00:28:36;7.40;;;4.13;;
16514;SDS011;8370;52.556;7.970;2022-09-09T00:31:11;9.53;;;3.97;;
16514;SDS011;8370;52.556;7.970;2022-09-09T00:33:41;6.33;;;3.70;;
16514;SDS011;8370;52.556;7.970;2022-09-09T00:36:15;8.77;;;4.00;;
16514;SDS011;8370;52.556;7.970;2022-09-09T00:38:51;12.10;;;3.87;;
16514;SDS011;8370;52.556;7.970;2022-09-09T00:41:39;7.60;;;4.23;;
16514;SDS011;8370;52.556;7.970;2022-09-09T00:44:35;7.50;;;3.90;;
16514;SDS011;8370;52.556;7.970;2022-09-09T00:50:00;13.23;;;4.13;;
16514;SDS011;8370;52.556;7.970;2022-09-09T00:57:28;6.20;;;4.43;;
16514;SDS011;8370;52.556;7.970;2022-09-09T01:10:55;10.70;;;3.53;;
16514;SDS011;8370;52.556;7.970;2022-09-09T01:13:27;4.63;;;3.63;;
16514;SDS011;8370;52.556;7.970;2022-09-09T01:15:56;7.53;;;3.47;;
16514;SDS011;8370;52.556;7.970;2022-09-09T01:18:26;9.77;;;3.77;;
16514;SDS011;8370;52.556;7.970;2022-09-09T01:21:04;6.67;;;3.67;;
16514;SDS011;8370;52.556;7.970;2022-09-09T01:26:37;9.60;;;3.80;;
16514;SDS011;8370;52.556;7.970;2022-09-09T01:29:07;6.90;;;3.60;;
16514;SDS011;8370;52.556;7.970;2022-09-09T01:31:39;7.63;;;3.57;;
16514;SDS011;8370;52.556;7.970;2022-09-09T01:34:17;10.83;;;4.30;;
16514;SDS011;8370;52.556;7.970;2022-09-09T01:36:53;5.60;;;3.30;;
16514;SDS011;8370;52.556;7.970;2022-09-09T01:39:34;4.70;;;3.27;;
16514;SDS011;8370;52.556;7.970;2022-09-09T01:42:01;7.13;;;3.53;;
16514;SDS011;8370;52.556;7.970;2022-09-09T01:44:29;4.80;;;3.50;;
16514;SDS011;8370;52.556;7.970;2022-09-09T01:46:55;8.23;;;3.57;;
16514;SDS011;8370;52.556;7.970;2022-09-09T01:49:21;7.90;;;3.30;;
16514;SDS011;8370;52.556;7.970;2022-09-09T01:51:48;5.33;;;3.07;;
16514;SDS011;8370;52.556;7.970;2022-09-09T01:54:17;6.87;;;3.00;;
16514;SDS011;8370;52.556;7.970;2022-09-09T01:57:06;7.33;;;3.70;;
16514;SDS011;8370;52.556;7.970;2022-09-09T02:08:33;5.80;;;3.50;;
16514;SDS011;8370;52.556;7.970;2022-09-09T02:11:18;5.13;;;3.50;;
16514;SDS011;8370;52.556;7.970;2022-09-09T02:13:47;10.70;;;3.70;;
16514;SDS011;8370;52.556;7.970;2022-09-09T02:19:11;7.73;;;3.30;;
16514;SDS011;8370;52.556;7.970;2022-09-09T02:21:39;7.77;;;3.20;;
16514;SDS011;8370;52.556;7.970;2022-09-09T02:24:07;7.67;;;3.77;;
16514;SDS011;8370;52.556;7.970;2022-09-09T02:26:35;8.03;;;3.57;;
16514;SDS011;8370;52.556;7.970;2022-09-09T02:29:06;7.27;;;3.40;;
16514;SDS011;8370;52.556;7.970;2022-09-09T02:31:36;8.23;;;3.23;;
16514;SDS011;8370;52.556;7.970;2022-09-09T02:34:03;6.50;;;3.47;;
16514;SDS011;8370;52.556;7.970;2022-09-09T02:36:32;9.23;;;4.60;;
16514;SDS011;8370;52.556;7.970;2022-09-09T02:39:00;10.03;;;3.37;;
16514;SDS011;8370;52.556;7.970;2022-09-09T02:41:30;3.43;;;3.00;;
16514;SDS011;8370;52.556;7.970;2022-09-09T02:43:58;6.27;;;3.10;;
16514;SDS011;8370;52.556;7.970;2022-09-09T02:49:15;7.47;;;3.33;;
16514;SDS011;8370;52.556;7.970;2022-09-09T02:54:33;6.23;;;4.40;;
16514;SDS011;8370;52.556;7.970;2022-09-09T02:59:48;9.40;;;3.93;;
16514;SDS011;8370;52.556;7.970;2022-09-09T03:02:16;6.13;;;3.90;;
16514;SDS011;8370;52.556;7.970;2022-09-09T03:04:43;6.07;;;3.80;;
16514;SDS011;8370;52.556;7.970;2022-09-09T03:07:09;6.73;;;4.03;;
16514;SDS011;8370;52.556;7.970;2022-09-09T03:09:35;8.37;;;3.40;;
16514;SDS011;8370;52.556;7.970;2022-09-09T03:12:01;6.50;;;3.43;;
16514;SDS011;8370;52.556;7.970;2022-09-09T03:14:29;5.57;;;3.50;;
16514;SDS011;8370;52.556;7.970;2022-09-09T03:16:55;6.00;;;3.20;;
16514;SDS011;8370;52.556;7.970;2022-09-09T03:19:23;10.97;;;4.03;;
16514;SDS011;8370;52.556;7.970;2022-09-09T03:21:49;8.23;;;4.07;;
16514;SDS011;8370;52.556;7.970;2022-09-09T03:24:15;8.67;;;3.80;;
16514;SDS011;8370;52.556;7.970;2022-09-09T03:26:41;9.10;;;3.43;;
16514;SDS011;8370;52.556;7.970;2022-09-09T03:29:09;9.83;;;3.70;;
16514;SDS011;8370;52.556;7.970;2022-09-09T03:31:37;7.83;;;3.60;;
16514;SDS011;8370;52.556;7.970;2022-09-09T03:34:03;5.17;;;4.23;;
16514;SDS011;8370;52.556;7.970;2022-09-09T03:36:29;5.87;;;3.50;;
16514;SDS011;8370;52.556;7.970;2022-09-09T03:38:55;6.07;;;4.13;;
16514;SDS011;8370;52.556;7.970;2022-09-09T03:41:21;5.53;;;3.40;;
16514;SDS011;8370;52.556;7.970;2022-09-09T03:43:49;7.40;;;3.60;;
16514;SDS011;8370;52.556;7.970;2022-09-09T03:46:18;4.67;;;3.10;;
16514;SDS011;8370;52.556;7.970;2022-09-09T03:48:47;9.77;;;3.73;;
16514;SDS011;8370;52.556;7.970;2022-09-09T03:51:13;6.00;;;3.27;;
16514;SDS011;8370;52.556;7.970;2022-09-09T03:53:40;4.70;;;3.53;;
16514;SDS011;8370;52.556;7.970;2022-09-09T03:56:05;5.70;;;3.93;;
16514;SDS011;8370;52.556;7.970;2022-09-09T03:58:32;9.27;;;3.50;;
16514;SDS011;8370;52.556;7.970;2022-09-09T04:01:00;7.67;;;3.97;;
16514;SDS011;8370;52.556;7.970;2022-09-09T04:03:41;7.27;;;3.73;;
16514;SDS011;8370;52.556;7.970;2022-09-09T04:06:12;6.87;;;3.43;;
16514;SDS011;8370;52.556;7.970;2022-09-09T04:08:39;13.07;;;4.77;;
16514;SDS011;8370;52.556;7.970;2022-09-09T04:11:05;6.13;;;4.70;;
16514;SDS011;8370;52.556;7.970;2022-09-09T04:13:31;4.87;;;3.70;;
16514;SDS011;8370;52.556;7.970;2022-09-09T04:15:59;7.73;;;4.03;;
16514;SDS011;8370;52.556;7.970;2022-09-09T04:18:26;6.83;;;4.70;;
16514;SDS011;8370;52.556;7.970;2022-09-09T04:20:53;8.57;;;5.13;;
16514;SDS011;8370;52.556;7.970;2022-09-09T04:23:22;6.63;;;5.10;;
16514;SDS011;8370;52.556;7.970;2022-09-09T04:25:49;6.97;;;4.50;;
16514;SDS011;8370;52.556;7.970;2022-09-09T04:28:19;8.70;;;5.17;;
16514;SDS011;8370;52.556;7.970;2022-09-09T04:30:46;8.77;;;4.83;;
16514;SDS011;8370;52.556;7.970;2022-09-09T04:33:12;7.27;;;4.80;;
16514;SDS011;8370;52.556;7.970;2022-09-09T04:35:39;5.37;;;4.70;;
16514;SDS011;8370;52.556;7.970;2022-09-09T04:38:13;7.97;;;4.50;;
16514;SDS011;8370;52.556;7.970;2022-09-09T04:40:42;11.07;;;5.77;;
16514;SDS011;8370;52.556;7.970;2022-09-09T04:43:08;7.63;;;4.97;;
16514;SDS011;8370;52.556;7.970;2022-09-09T04:45:34;9.17;;;4.73;;
16514;SDS011;8370;52.556;7.970;2022-09-09T04:48:00;8.30;;;5.97;;
16514;SDS011;8370;52.556;7.970;2022-09-09T04:50:27;6.67;;;5.80;;
16514;SDS011;8370;52.556;7.970;2022-09-09T04:52:53;8.30;;;5.57;;
16514;SDS011;8370;52.556;7.970;2022-09-09T04:55:19;8.20;;;6.10;;
16514;SDS011;8370;52.556;7.970;2022-09-09T04:57:45;8.27;;;6.43;;
16514;SDS011;8370;52.556;7.970;2022-09-09T05:00:10;9.40;;;5.87;;
16514;SDS011;8370;52.556;7.970;2022-09-09T05:02:37;9.40;;;5.50;;
16514;SDS011;8370;52.556;7.970;2022-09-09T05:05:03;9.60;;;6.80;;
16514;SDS011;8370;52.556;7.970;2022-09-09T05:07:29;9.20;;;5.97;;
16514;SDS011;8370;52.556;7.970;2022-09-09T05:09:56;7.07;;;5.33;;
16514;SDS011;8370;52.556;7.970;2022-09-09T05:12:22;8.07;;;5.83;;
16514;SDS011;8370;52.556;7.970;2022-09-09T05:14:50;9.43;;;5.20;;
16514;SDS011;8370;52.556;7.970;2022-09-09T05:17:16;11.23;;;6.07;;
16514;SDS011;8370;52.556;7.970;2022-09-09T05:19:42;7.03;;;5.53;;
16514;SDS011;8370;52.556;7.970;2022-09-09T05:22:09;7.10;;;5.40;;
16514;SDS011;8370;52.556;7.970;2022-09-09T05:24:34;8.00;;;5.57;;
16514;SDS011;8370;52.556;7.970;2022-09-09T05:27:01;11.20;;;5.50;;
16514;SDS011;8370;52.556;7.970;2022-09-09T05:29:27;8.13;;;5.50;;
16514;SDS011;8370;52.556;7.970;2022-09-09T05:31:53;7.80;;;5.77;;
16514;SDS011;8370;52.556;7.970;2022-09-09T05:34:19;7.87;;;5.27;;
16514;SDS011;8370;52.556;7.970;2022-09-09T05:36:45;8.83;;;6.07;;
16514;SDS011;8370;52.556;7.970;2022-09-09T05:39:11;11.93;;;5.70;;
16514;SDS011;8370;52.556;7.970;2022-09-09T05:41:37;6.43;;;4.90;;
16514;SDS011;8370;52.556;7.970;2022-09-09T05:44:03;9.27;;;5.90;;
16514;SDS011;8370;52.556;7.970;2022-09-09T05:46:28;9.00;;;5.10;;
16514;SDS011;8370;52.556;7.970;2022-09-09T05:48:55;10.73;;;5.93;;
16514;SDS011;8370;52.556;7.970;2022-09-09T05:51:23;8.40;;;5.17;;
16514;SDS011;8370;52.556;7.970;2022-09-09T05:53:51;8.57;;;5.17;;
16514;SDS011;8370;52.556;7.970;2022-09-09T05:56:18;5.77;;;4.57;;
16514;SDS011;8370;52.556;7.970;2022-09-09T05:58:45;9.37;;;4.57;;
16514;SDS011;8370;52.556;7.970;2022-09-09T06:01:18;6.83;;;4.23;;
16514;SDS011;8370;52.556;7.970;2022-09-09T06:03:54;11.17;;;5.37;;
16514;SDS011;8370;52.556;7.970;2022-09-09T06:06:20;9.60;;;4.60;;
16514;SDS011;8370;52.556;7.970;2022-09-09T06:08:48;7.90;;;4.07;;
16514;SDS011;8370;52.556;7.970;2022-09-09T06:11:17;6.43;;;3.90;;
16514;SDS011;8370;52.556;7.970;2022-09-09T06:13:47;7.27;;;3.60;;
16514;SDS011;8370;52.556;7.970;2022-09-09T06:16:16;4.73;;;3.73;;
16514;SDS011;8370;52.556;7.970;2022-09-09T06:18:43;4.77;;;3.87;;
16514;SDS011;8370;52.556;7.970;2022-09-09T06:21:11;9.37;;;3.93;;
16514;SDS011;8370;52.556;7.970;2022-09-09T06:23:41;5.67;;;3.93;;
16514;SDS011;8370;52.556;7.970;2022-09-09T06:26:09;10.23;;;4.10;;
16514;SDS011;8370;52.556;7.970;2022-09-09T06:28:36;5.40;;;3.73;;
16514;SDS011;8370;52.556;7.970;2022-09-09T06:31:03;5.63;;;3.80;;
16514;SDS011;8370;52.556;7.970;2022-09-09T06:33:31;5.97;;;3.60;;
16514;SDS011;8370;52.556;7.970;2022-09-09T06:36:06;7.30;;;4.30;;
16514;SDS011;8370;52.556;7.970;2022-09-09T06:38:36;6.40;;;4.00;;
16514;SDS011;8370;52.556;7.970;2022-09-09T06:41:01;8.17;;;4.00;;
16514;SDS011;8370;52.556;7.970;2022-09-09T06:43:27;6.93;;;4.03;;
16514;SDS011;8370;52.556;7.970;2022-09-09T06:45:54;7.23;;;4.07;;
16514;SDS011;8370;52.556;7.970;2022-09-09T06:48:24;5.83;;;3.30;;
16514;SDS011;8370;52.556;7.970;2022-09-09T06:51:06;6.80;;;4.27;;
16514;SDS011;8370;52.556;7.970;2022-09-09T06:53:34;6.87;;;3.57;;
16514;SDS011;8370;52.556;7.970;2022-09-09T06:56:46;7.83;;;3.67;;
16514;SDS011;8370;52.556;7.970;2022-09-09T06:58:48;4.77;;;3.57;;
16514;SDS011;8370;52.556;7.970;2022-09-09T07:01:16;5.07;;;3.40;;
16514;SDS011;8370;52.556;7.970;2022-09-09T07:03:48;7.37;;;2.70;;
16514;SDS011;8370;52.556;7.970;2022-09-09T07:06:19;5.10;;;3.03;;
16514;SDS011;8370;52.556;7.970;2022-09-09T07:08:48;6.70;;;3.80;;
16514;SDS011;8370;52.556;7.970;2022-09-09T07:11:18;7.80;;;3.27;;
16514;SDS011;8370;52.556;7.970;2022-09-09T07:13:45;4.63;;;2.70;;
16514;SDS011;8370;52.556;7.970;2022-09-09T07:16:12;4.10;;;3.00;;
16514;SDS011;8370;52.556;7.970;2022-09-09T07:18:39;7.47;;;2.80;;
16514;SDS011;8370;52.556;7.970;2022-09-09T07:21:06;8.13;;;2.80;;
16514;SDS011;8370;52.556;7.970;2022-09-09T07:23:33;4.33;;;2.43;;
16514;SDS011;8370;52.556;7.970;2022-09-09T07:26:00;4.87;;;2.23;;
16514;SDS011;8370;52.556;7.970;2022-09-09T07:28:26;5.87;;;2.40;;
16514;SDS011;8370;52.556;7.970;2022-09-09T07:30:57;6.73;;;2.87;;
16514;SDS011;8370;52.556;7.970;2022-09-09T07:33:24;6.40;;;2.27;;
16514;SDS011;8370;52.556;7.970;2022-09-09T07:35:51;5.00;;;2.57;;
16514;SDS011;8370;52.556;7.970;2022-09-09T07:38:17;12.33;;;3.27;;
16514;SDS011;8370;52.556;7.970;2022-09-09T07:40:44;4.83;;;2.80;;
16514;SDS011;8370;52.556;7.970;2022-09-09T07:43:10;9.17;;;2.83;;
16514;SDS011;8370;52.556;7.970;2022-09-09T07:45:36;6.07;;;2.67;;
16514;SDS011;8370;52.556;7.970;2022-09-09T07:48:02;5.97;;;2.97;;
16514;SDS011;8370;52.556;7.970;2022-09-09T07:50:28;4.77;;;2.40;;
16514;SDS011;8370;52.556;7.970;2022-09-09T07:52:53;5.63;;;2.50;;
16514;SDS011;8370;52.556;7.970;2022-09-09T07:55:20;4.93;;;2.80;;
16514;SDS011;8370;52.556;7.970;2022-09-09T07:57:46;4.07;;;2.33;;
16514;SDS011;8370;52.556;7.970;2022-09-09T08:00:12;8.13;;;2.83;;
16514;SDS011;8370;52.556;7.970;2022-09-09T08:02:39;5.97;;;2.53;;
16514;SDS011;8370;52.556;7.970;2022-09-09T08:05:05;6.07;;;2.17;;
16514;SDS011;8370;52.556;7.970;2022-09-09T08:07:31;5.63;;;2.10;;
16514;SDS011;8370;52.556;7.970;2022-09-09T08:09:57;5.87;;;2.47;;
16514;SDS011;8370;52.556;7.970;2022-09-09T08:12:22;7.17;;;2.93;;
16514;SDS011;8370;52.556;7.970;2022-09-09T08:14:48;3.90;;;2.17;;
16514;SDS011;8370;52.556;7.970;2022-09-09T08:17:14;5.80;;;1.83;;
16514;SDS011;8370;52.556;7.970;2022-09-09T08:19:39;6.43;;;2.07;;
16514;SDS011;8370;52.556;7.970;2022-09-09T08:22:05;4.33;;;2.00;;
16514;SDS011;8370;52.556;7.970;2022-09-09T08:24:30;5.97;;;1.97;;
16514;SDS011;8370;52.556;7.970;2022-09-09T08:26:56;8.33;;;2.70;;
16514;SDS011;8370;52.556;7.970;2022-09-09T08:29:22;8.70;;;2.37;;
16514;SDS011;8370;52.556;7.970;2022-09-09T08:31:49;3.73;;;2.10;;
16514;SDS011;8370;52.556;7.970;2022-09-09T08:34:17;5.27;;;2.17;;
16514;SDS011;8370;52.556;7.970;2022-09-09T08:36:45;6.87;;;2.40;;
16514;SDS011;8370;52.556;7.970;2022-09-09T08:39:13;3.43;;;2.03;;
16514;SDS011;8370;52.556;7.970;2022-09-09T08:41:58;4.33;;;2.10;;
16514;SDS011;8370;52.556;7.970;2022-09-09T08:44:37;4.43;;;2.00;;
16514;SDS011;8370;52.556;7.970;2022-09-09T08:50:00;4.70;;;2.10;;
16514;SDS011;8370;52.556;7.970;2022-09-09T08:58:15;5.20;;;1.88;;
16514;SDS011;8370;52.556;7.970;2022-09-09T09:00:49;4.35;;;1.85;;
16514;SDS011;8370;52.556;7.970;2022-09-09T09:06:25;5.65;;;2.00;;
16514;SDS011;8370;52.556;7.970;2022-09-09T09:08:59;2.90;;;1.80;;
16514;SDS011;8370;52.556;7.970;2022-09-09T09:12:15;5.70;;;1.98;;
16514;SDS011;8370;52.556;7.970;2022-09-09T09:14:48;6.15;;;1.85;;
16514;SDS011;8370;52.556;7.970;2022-09-09T09:17:14;7.03;;;2.15;;
16514;SDS011;8370;52.556;7.970;2022-09-09T09:19:44;7.18;;;2.45;;
16514;SDS011;8370;52.556;7.970;2022-09-09T09:22:21;9.13;;;2.63;;
16514;SDS011;8370;52.556;7.970;2022-09-09T09:24:54;5.55;;;2.50;;
16514;SDS011;8370;52.556;7.970;2022-09-09T09:27:30;7.22;;;2.80;;
16514;SDS011;8370;52.556;7.970;2022-09-09T09:29:56;5.72;;;2.55;;
16514;SDS011;8370;52.556;7.970;2022-09-09T09:32:25;8.52;;;2.85;;
16514;SDS011;8370;52.556;7.970;2022-09-09T09:34:56;4.10;;;2.70;;
16514;SDS011;8370;52.556;7.970;2022-09-09T09:37:26;5.55;;;3.00;;
16514;SDS011;8370;52.556;7.970;2022-09-09T09:40:07;6.03;;;3.20;;
16514;SDS011;8370;52.556;7.970;2022-09-09T09:42:37;5.38;;;3.10;;
16514;SDS011;8370;52.556;7.970;2022-09-09T09:45:16;7.47;;;3.30;;
16514;SDS011;8370;52.556;7.970;2022-09-09T09:48:03;8.88;;;3.42;;
16514;SDS011;8370;52.556;7.970;2022-09-09T09:50:31;5.55;;;2.78;;
16514;SDS011;8370;52.556;7.970;2022-09-09T09:53:17;3.83;;;2.92;;
16514;SDS011;8370;52.556;7.970;2022-09-09T09:56:09;7.93;;;3.43;;
16514;SDS011;8370;52.556;7.970;2022-09-09T10:01:18;6.18;;;2.47;;
16514;SDS011;8370;52.556;7.970;2022-09-09T10:03:52;10.43;;;2.47;;
16514;SDS011;8370;52.556;7.970;2022-09-09T10:06:31;8.95;;;2.80;;
16514;SDS011;8370;52.556;7.970;2022-09-09T10:09:03;6.35;;;3.10;;
16514;SDS011;8370;52.556;7.970;2022-09-09T10:11:56;6.68;;;2.92;;
16514;SDS011;8370;52.556;7.970;2022-09-09T10:14:50;10.20;;;3.30;;
16514;SDS011;8370;52.556;7.970;2022-09-09T10:22:34;7.88;;;2.47;;
16514;SDS011;8370;52.556;7.970;2022-09-09T10:33:02;4.13;;;2.05;;
16514;SDS011;8370;52.556;7.970;2022-09-09T10:35:35;6.30;;;2.85;;
16514;SDS011;8370;52.556;7.970;2022-09-09T10:38:25;8.50;;;2.80;;
16514;SDS011;8370;52.556;7.970;2022-09-09T10:47:11;6.18;;;2.83;;
16514;SDS011;8370;52.556;7.970;2022-09-09T10:55:18;5.85;;;3.08;;
16514;SDS011;8370;52.556;7.970;2022-09-09T10:57:46;8.50;;;3.60;;
16514;SDS011;8370;52.556;7.970;2022-09-09T11:00:15;5.78;;;3.33;;
16514;SDS011;8370;52.556;7.970;2022-09-09T11:02:43;5.63;;;2.10;;
16514;SDS011;8370;52.556;7.970;2022-09-09T11:05:12;7.20;;;1.90;;
16514;SDS011;8370;52.556;7.970;2022-09-09T11:07:51;3.75;;;1.58;;
16514;SDS011;8370;52.556;7.970;2022-09-09T11:10:34;2.88;;;1.38;;
16514;SDS011;8370;52.556;7.970;2022-09-09T11:13:09;9.23;;;2.05;;
16514;SDS011;8370;52.556;7.970;2022-09-09T11:15:41;3.42;;;1.50;;
16514;SDS011;8370;52.556;7.970;2022-09-09T11:18:11;4.55;;;1.58;;
16514;SDS011;8370;52.556;7.970;2022-09-09T11:20:43;3.40;;;1.60;;
16514;SDS011;8370;52.556;7.970;2022-09-09T11:23:12;4.03;;;1.45;;
16514;SDS011;8370;52.556;7.970;2022-09-09T11:25:48;4.80;;;1.80;;
16514;SDS011;8370;52.556;7.970;2022-09-09T11:37:00;5.57;;;2.08;;
16514;SDS011;8370;52.556;7.970;2022-09-09T11:42:20;5.53;;;2.30;;
16514;SDS011;8370;52.556;7.970;2022-09-09T11:44:48;7.55;;;1.90;;
16514;SDS011;8370;52.556;7.970;2022-09-09T11:47:19;4.90;;;1.98;;
16514;SDS011;8370;52.556;7.970;2022-09-09T11:49:49;3.80;;;1.40;;
16514;SDS011;8370;52.556;7.970;2022-09-09T11:55:19;7.68;;;1.15;;
16514;SDS011;8370;52.556;7.970;2022-09-09T12:00:36;2.97;;;0.95;;
16514;SDS011;8370;52.556;7.970;2022-09-09T12:03:31;3.70;;;1.00;;
16514;SDS011;8370;52.556;7.970;2022-09-09T12:06:13;4.38;;;1.63;;
16514;SDS011;8370;52.556;7.970;2022-09-09T12:08:43;4.65;;;1.50;;
16514;SDS011;8370;52.556;7.970;2022-09-09T12:11:23;5.93;;;1.23;;
16514;SDS011;8370;52.556;7.970;2022-09-09T12:13:54;4.22;;;1.30;;
16514;SDS011;8370;52.556;7.970;2022-09-09T12:16:28;2.78;;;1.30;;
16514;SDS011;8370;52.556;7.970;2022-09-09T12:19:04;2.78;;;1.20;;
16514;SDS011;8370;52.556;7.970;2022-09-09T12:21:58;4.05;;;1.25;;
16514;SDS011;8370;52.556;7.970;2022-09-09T12:27:12;1.55;;;0.80;;
16514;SDS011;8370;52.556;7.970;2022-09-09T12:32:22;5.47;;;0.90;;
16514;SDS011;8370;52.556;7.970;2022-09-09T12:34:53;3.15;;;1.17;;
16514;SDS011;8370;52.556;7.970;2022-09-09T12:37:32;2.40;;;0.95;;
16514;SDS011;8370;52.556;7.970;2022-09-09T12:40:00;4.35;;;0.80;;
16514;SDS011;8370;52.556;7.970;2022-09-09T12:42:29;3.83;;;0.70;;
16514;SDS011;8370;52.556;7.970;2022-09-09T12:44:56;3.67;;;1.00;;
16514;SDS011;8370;52.556;7.970;2022-09-09T12:47:25;2.42;;;0.80;;
16514;SDS011;8370;52.556;7.970;2022-09-09T12:50:03;3.42;;;0.95;;
16514;SDS011;8370;52.556;7.970;2022-09-09T12:52:32;3.53;;;1.13;;
16514;SDS011;8370;52.556;7.970;2022-09-09T12:55:03;3.38;;;0.95;;
16514;SDS011;8370;52.556;7.970;2022-09-09T12:57:35;3.85;;;1.20;;
16514;SDS011;8370;52.556;7.970;2022-09-09T13:00:06;1.83;;;0.77;;
16514;SDS011;8370;52.556;7.970;2022-09-09T13:02:45;5.75;;;1.38;;
16514;SDS011;8370;52.556;7.970;2022-09-09T13:05:28;5.78;;;1.20;;
16514;SDS011;8370;52.556;7.970;2022-09-09T13:08:08;2.90;;;1.05;;
16514;SDS011;8370;52.556;7.970;2022-09-09T13:13:26;3.70;;;0.85;;
16514;SDS011;8370;52.556;7.970;2022-09-09T13:15:58;4.65;;;1.20;;
16514;SDS011;8370;52.556;7.970;2022-09-09T13:18:27;2.45;;;0.95;;
16514;SDS011;8370;52.556;7.970;2022-09-09T13:20:55;2.58;;;0.90;;
16514;SDS011;8370;52.556;7.970;2022-09-09T13:23:22;2.45;;;0.93;;
16514;SDS011;8370;52.556;7.970;2022-09-09T13:25:55;2.10;;;1.05;;
16514;SDS011;8370;52.556;7.970;2022-09-09T13:28:23;5.55;;;1.10;;
16514;SDS011;8370;52.556;7.970;2022-09-09T13:30:58;4.15;;;1.20;;
16514;SDS011;8370;52.556;7.970;2022-09-09T13:33:30;4.57;;;1.70;;
16514;SDS011;8370;52.556;7.970;2022-09-09T13:35:59;3.10;;;1.10;;
16514;SDS011;8370;52.556;7.970;2022-09-09T13:38:36;2.85;;;1.30;;
16514;SDS011;8370;52.556;7.970;2022-09-09T13:41:08;4.45;;;1.45;;
16514;SDS011;8370;52.556;7.970;2022-09-09T13:43:38;4.90;;;1.60;;
16514;SDS011;8370;52.556;7.970;2022-09-09T13:51:35;4.20;;;2.63;;
16514;SDS011;8370;52.556;7.970;2022-09-09T13:54:03;5.05;;;2.15;;
16514;SDS011;8370;52.556;7.970;2022-09-09T13:56:31;3.42;;;1.60;;
16514;SDS011;8370;52.556;7.970;2022-09-09T13:58:57;2.33;;;1.70;;
16514;SDS011;8370;52.556;7.970;2022-09-09T14:01:23;3.03;;;1.83;;
16514;SDS011;8370;52.556;7.970;2022-09-09T14:03:48;7.30;;;2.40;;
16514;SDS011;8370;52.556;7.970;2022-09-09T14:06:14;5.75;;;2.10;;
16514;SDS011;8370;52.556;7.970;2022-09-09T14:08:39;2.65;;;1.50;;
16514;SDS011;8370;52.556;7.970;2022-09-09T14:11:05;2.17;;;1.60;;
16514;SDS011;8370;52.556;7.970;2022-09-09T14:13:31;2.13;;;1.50;;
16514;SDS011;8370;52.556;7.970;2022-09-09T14:15:57;3.10;;;1.70;;
16514;SDS011;8370;52.556;7.970;2022-09-09T14:18:22;4.18;;;1.23;;
16514;SDS011;8370;52.556;7.970;2022-09-09T14:20:50;4.18;;;1.30;;
16514;SDS011;8370;52.556;7.970;2022-09-09T14:23:16;3.72;;;1.20;;
16514;SDS011;8370;52.556;7.970;2022-09-09T14:25:42;4.60;;;1.25;;
16514;SDS011;8370;52.556;7.970;2022-09-09T14:28:09;3.42;;;1.20;;
16514;SDS011;8370;52.556;7.970;2022-09-09T14:30:37;3.90;;;1.27;;
16514;SDS011;8370;52.556;7.970;2022-09-09T14:33:04;4.45;;;1.67;;
16514;SDS011;8370;52.556;7.970;2022-09-09T14:35:29;4.88;;;1.40;;
16514;SDS011;8370;52.556;7.970;2022-09-09T14:37:55;3.30;;;1.17;;
16514;SDS011;8370;52.556;7.970;2022-09-09T14:40:21;2.08;;;1.20;;
16514;SDS011;8370;52.556;7.970;2022-09-09T14:42:47;5.03;;;1.20;;
16514;SDS011;8370;52.556;7.970;2022-09-09T14:45:12;1.85;;;0.93;;
16514;SDS011;8370;52.556;7.970;2022-09-09T14:47:38;2.80;;;1.20;;
16514;SDS011;8370;52.556;7.970;2022-09-09T14:50:04;3.72;;;1.25;;
16514;SDS011;8370;52.556;7.970;2022-09-09T14:52:30;5.22;;;1.05;;
16514;SDS011;8370;52.556;7.970;2022-09-09T14:54:56;3.35;;;0.93;;
16514;SDS011;8370;52.556;7.970;2022-09-09T14:57:21;5.40;;;1.13;;
16514;SDS011;8370;52.556;7.970;2022-09-09T14:59:47;1.60;;;0.75;;
16514;SDS011;8370;52.556;7.970;2022-09-09T15:02:14;2.65;;;0.90;;
16514;SDS011;8370;52.556;7.970;2022-09-09T15:04:39;4.82;;;0.95;;
16514;SDS011;8370;52.556;7.970;2022-09-09T15:07:05;8.65;;;1.92;;
16514;SDS011;8370;52.556;7.970;2022-09-09T15:09:30;6.93;;;1.30;;
16514;SDS011;8370;52.556;7.970;2022-09-09T15:11:56;5.53;;;1.38;;
16514;SDS011;8370;52.556;7.970;2022-09-09T15:14:21;8.02;;;2.63;;
16514;SDS011;8370;52.556;7.970;2022-09-09T15:16:47;5.07;;;1.83;;
16514;SDS011;8370;52.556;7.970;2022-09-09T15:19:12;6.50;;;2.40;;
16514;SDS011;8370;52.556;7.970;2022-09-09T15:21:38;3.43;;;1.70;;
16514;SDS011;8370;52.556;7.970;2022-09-09T15:24:03;4.17;;;2.00;;
16514;SDS011;8370;52.556;7.970;2022-09-09T15:26:30;4.13;;;2.30;;
16514;SDS011;8370;52.556;7.970;2022-09-09T15:28:56;3.43;;;1.93;;
16514;SDS011;8370;52.556;7.970;2022-09-09T15:31:25;3.30;;;2.40;;
16514;SDS011;8370;52.556;7.970;2022-09-09T15:33:57;2.97;;;2.23;;
16514;SDS011;8370;52.556;7.970;2022-09-09T15:36:28;3.57;;;2.30;;
16514;SDS011;8370;52.556;7.970;2022-09-09T15:38:56;8.70;;;3.07;;
16514;SDS011;8370;52.556;7.970;2022-09-09T15:41:23;5.17;;;2.60;;
16514;SDS011;8370;52.556;7.970;2022-09-09T15:43:49;3.90;;;2.60;;
16514;SDS011;8370;52.556;7.970;2022-09-09T15:48:42;4.10;;;2.57;;
16514;SDS011;8370;52.556;7.970;2022-09-09T15:51:09;4.53;;;2.10;;
16514;SDS011;8370;52.556;7.970;2022-09-09T15:53:35;2.33;;;2.13;;
16514;SDS011;8370;52.556;7.970;2022-09-09T15:56:04;6.40;;;2.13;;
16514;SDS011;8370;52.556;7.970;2022-09-09T15:58:33;3.80;;;1.83;;
16514;SDS011;8370;52.556;7.970;2022-09-09T16:01:05;6.13;;;1.90;;
16514;SDS011;8370;52.556;7.970;2022-09-09T16:03:35;3.57;;;2.10;;
16514;SDS011;8370;52.556;7.970;2022-09-09T16:06:08;2.03;;;1.90;;
16514;SDS011;8370;52.556;7.970;2022-09-09T16:08:38;2.50;;;2.20;;
16514;SDS011;8370;52.556;7.970;2022-09-09T16:11:10;4.13;;;2.40;;
16514;SDS011;8370;52.556;7.970;2022-09-09T16:13:42;3.87;;;2.77;;
16514;SDS011;8370;52.556;7.970;2022-09-09T16:16:09;4.30;;;2.80;;
16514;SDS011;8370;52.556;7.970;2022-09-09T16:18:37;5.10;;;3.00;;
16514;SDS011;8370;52.556;7.970;2022-09-09T16:21:05;4.50;;;2.70;;
16514;SDS011;8370;52.556;7.970;2022-09-09T16:23:32;2.33;;;2.13;;
16514;SDS011;8370;52.556;7.970;2022-09-09T16:25:59;3.83;;;2.22;;
16514;SDS011;8370;52.556;7.970;2022-09-09T16:28:25;4.75;;;2.03;;
16514;SDS011;8370;52.556;7.970;2022-09-09T16:30:51;6.57;;;1.98;;
16514;SDS011;8370;52.556;7.970;2022-09-09T16:33:17;2.78;;;1.90;;
16514;SDS011;8370;52.556;7.970;2022-09-09T16:35:43;6.00;;;1.52;;
16514;SDS011;8370;52.556;7.970;2022-09-09T16:38:09;1.83;;;1.60;;
16514;SDS011;8370;52.556;7.970;2022-09-09T16:40:35;2.47;;;1.60;;
16514;SDS011;8370;52.556;7.970;2022-09-09T16:43:03;1.93;;;1.53;;
16514;SDS011;8370;52.556;7.970;2022-09-09T16:45:30;2.33;;;1.75;;
16514;SDS011;8370;52.556;7.970;2022-09-09T16:47:57;3.97;;;2.10;;
16514;SDS011;8370;52.556;7.970;2022-09-09T16:50:22;2.47;;;1.70;;
16514;SDS011;8370;52.556;7.970;2022-09-09T16:52:48;4.57;;;1.38;;
16514;SDS011;8370;52.556;7.970;2022-09-09T16:55:13;3.23;;;1.20;;
16514;SDS011;8370;52.556;7.970;2022-09-09T16:57:39;3.10;;;2.00;;
16514;SDS011;8370;52.556;7.970;2022-09-09T17:00:06;2.73;;;1.20;;
16514;SDS011;8370;52.556;7.970;2022-09-09T17:02:33;1.83;;;1.23;;
16514;SDS011;8370;52.556;7.970;2022-09-09T17:04:59;1.40;;;1.30;;
16514;SDS011;8370;52.556;7.970;2022-09-09T17:07:24;4.30;;;1.70;;
16514;SDS011;8370;52.556;7.970;2022-09-09T17:09:50;5.05;;;1.70;;
16514;SDS011;8370;52.556;7.970;2022-09-09T17:12:15;4.43;;;1.58;;
16514;SDS011;8370;52.556;7.970;2022-09-09T17:14:42;2.60;;;1.70;;
16514;SDS011;8370;52.556;7.970;2022-09-09T17:17:07;1.70;;;1.60;;
16514;SDS011;8370;52.556;7.970;2022-09-09T17:19:33;2.00;;;1.67;;
16514;SDS011;8370;52.556;7.970;2022-09-09T17:21:59;2.17;;;1.55;;
16514;SDS011;8370;52.556;7.970;2022-09-09T17:24:25;3.70;;;2.40;;